Time;durP1;ratioP1;P1;durP2;ratioP2;P2;SDS_P1;SDS_P2;PMS_P1;PMS_P2;Temp;Humidity;BMP_temperature;BMP_pressure;BME280_temperature;BME280_humidity;BME280_pressure;Samples;Min_cycle;Max_cycle;Signal;HPM_P1;HPM_P2
2022/03/30 00:00:32;;;;;;;21.20;10.15;;;;;;;;;;5072178;28;20028;-60
2022/03/30 00:02:58;;;;;;;23.67;10.90;;;;;;;;;;5071438;28;20448;-60
2022/03/30 00:05:24;;;;;;;24.02;9.68;;;;;;;;;;5072175;28;20083;-60
2022/03/30 00:07:53;;;;;;;20.85;10.23;;;;;;;;;;5072857;28;20036;-60
2022/03/30 00:10:19;;;;;;;22.05;11.07;;;;;;;;;;5073349;28;20032;-60
2022/03/30 00:12:45;;;;;;;26.00;10.80;;;;;;;;;;5070530;28;20040;-60
2022/03/30 00:15:11;;;;;;;21.17;9.90;;;;;;;;;;5072051;28;20036;-60
2022/03/30 00:17:37;;;;;;;22.95;10.40;;;;;;;;;;5069502;28;20418;-60
2022/03/30 00:20:04;;;;;;;22.35;9.82;;;;;;;;;;5070617;28;20044;-60
2022/03/30 00:22:30;;;;;;;26.00;10.10;;;;;;;;;;5071129;28;20035;-61
2022/03/30 00:24:56;;;;;;;18.00;8.77;;;;;;;;;;5071019;28;20446;-60
2022/03/30 00:27:22;;;;;;;18.42;9.38;;;;;;;;;;5072432;28;20047;-60
2022/03/30 00:29:48;;;;;;;15.77;8.55;;;;;;;;;;5071479;28;20040;-60
2022/03/30 00:32:15;;;;;;;20.70;9.57;;;;;;;;;;5071386;28;20037;-60
2022/03/30 00:34:41;;;;;;;22.60;11.73;;;;;;;;;;5069229;28;20104;-60
2022/03/30 00:37:08;;;;;;;22.48;9.40;;;;;;;;;;5071972;28;20056;-61
2022/03/30 00:39:34;;;;;;;20.30;9.23;;;;;;;;;;5074299;28;20051;-60
2022/03/30 00:42:00;;;;;;;15.88;8.27;;;;;;;;;;5071927;28;20045;-60
2022/03/30 00:44:29;;;;;;;18.95;8.95;;;;;;;;;;5069627;28;20165;-60
2022/03/30 00:46:55;;;;;;;15.95;7.78;;;;;;;;;;5071827;28;20048;-60
2022/03/30 00:49:21;;;;;;;19.13;8.65;;;;;;;;;;5071955;28;20531;-60
2022/03/30 00:51:48;;;;;;;17.83;9.07;;;;;;;;;;5070815;28;20115;-60
2022/03/30 00:54:15;;;;;;;20.42;9.75;;;;;;;;;;5071560;28;20372;-60
2022/03/30 00:56:43;;;;;;;18.45;9.07;;;;;;;;;;5071529;28;20437;-60
2022/03/30 00:59:10;;;;;;;20.15;9.85;;;;;;;;;;5072500;28;20456;-60
2022/03/30 01:01:36;;;;;;;21.33;9.18;;;;;;;;;;5074748;28;20051;-60
2022/03/30 01:04:07;;;;;;;22.65;10.38;;;;;;;;;;5071395;28;20119;-60
2022/03/30 01:06:33;;;;;;;30.23;11.20;;;;;;;;;;5068545;28;20055;-61
2022/03/30 01:08:59;;;;;;;22.80;9.65;;;;;;;;;;5071765;28;20055;-60
2022/03/30 01:11:26;;;;;;;25.45;10.77;;;;;;;;;;5071509;28;20036;-60
2022/03/30 01:13:52;;;;;;;20.75;10.35;;;;;;;;;;5073818;28;20097;-60
2022/03/30 01:16:18;;;;;;;25.80;10.20;;;;;;;;;;5071470;28;20045;-60
2022/03/30 01:18:44;;;;;;;20.30;9.80;;;;;;;;;;5071365;28;20036;-60
2022/03/30 01:21:10;;;;;;;20.27;10.18;;;;;;;;;;5069971;28;20473;-60
2022/03/30 01:23:36;;;;;;;26.55;10.93;;;;;;;;;;5071149;28;20062;-60
2022/03/30 01:26:05;;;;;;;25.58;11.55;;;;;;;;;;5071710;28;20487;-60
2022/03/30 01:28:35;;;;;;;25.17;11.18;;;;;;;;;;5071070;28;20044;-61
2022/03/30 01:33:47;;;;;;;22.73;11.10;;;;;;;;;;5072039;28;20055;-60
2022/03/30 01:36:13;;;;;;;22.30;10.70;;;;;;;;;;5069680;28;20056;-60
2022/03/30 01:38:39;;;;;;;25.38;11.00;;;;;;;;;;5073465;28;20037;-60
2022/03/30 01:41:07;;;;;;;21.17;10.82;;;;;;;;;;5069746;28;20487;-60
2022/03/30 01:43:33;;;;;;;24.25;10.95;;;;;;;;;;5070675;28;20033;-60
2022/03/30 01:45:59;;;;;;;24.83;11.60;;;;;;;;;;5069407;28;20483;-60
2022/03/30 01:48:25;;;;;;;24.15;10.80;;;;;;;;;;5067817;28;20074;-60
2022/03/30 01:50:51;;;;;;;24.17;11.63;;;;;;;;;;5069105;28;20044;-60
2022/03/30 01:53:17;;;;;;;24.92;11.13;;;;;;;;;;5070053;28;20040;-60
2022/03/30 01:55:43;;;;;;;24.92;10.95;;;;;;;;;;5068832;28;20048;-61
2022/03/30 01:58:09;;;;;;;23.90;10.98;;;;;;;;;;5066172;28;20043;-60
2022/03/30 02:00:35;;;;;;;24.45;10.40;;;;;;;;;;5070031;28;20040;-60
2022/03/30 02:03:01;;;;;;;19.63;10.73;;;;;;;;;;5068649;28;20565;-60
2022/03/30 02:05:28;;;;;;;21.55;10.93;;;;;;;;;;5070875;28;20033;-60
2022/03/30 02:07:55;;;;;;;25.58;11.15;;;;;;;;;;5067692;28;20514;-61
2022/03/30 02:10:21;;;;;;;16.85;9.40;;;;;;;;;;5070380;28;20129;-61
2022/03/30 02:12:47;;;;;;;17.00;10.38;;;;;;;;;;5069141;28;20479;-60
2022/03/30 02:15:13;;;;;;;24.23;10.43;;;;;;;;;;5070076;28;21631;-60
2022/03/30 02:17:40;;;;;;;23.08;11.02;;;;;;;;;;5069958;28;20125;-60
2022/03/30 02:20:06;;;;;;;23.65;10.82;;;;;;;;;;5070618;28;20043;-60
2022/03/30 02:22:32;;;;;;;24.35;12.27;;;;;;;;;;5070357;28;20033;-60
2022/03/30 02:24:58;;;;;;;20.83;11.52;;;;;;;;;;5071241;28;20040;-60
2022/03/30 02:27:24;;;;;;;23.27;11.40;;;;;;;;;;5071372;28;20036;-60
2022/03/30 02:29:51;;;;;;;22.48;11.30;;;;;;;;;;5071981;28;20437;-60
2022/03/30 02:32:17;;;;;;;24.27;11.05;;;;;;;;;;5070205;28;20131;-60
2022/03/30 02:34:43;;;;;;;24.40;11.70;;;;;;;;;;5069478;28;20056;-59
2022/03/30 02:37:09;;;;;;;25.15;11.70;;;;;;;;;;5069866;28;20091;-60
2022/03/30 02:39:36;;;;;;;30.23;11.63;;;;;;;;;;5068410;28;20066;-60
2022/03/30 02:42:02;;;;;;;26.98;11.93;;;;;;;;;;5070943;28;20487;-60
2022/03/30 02:44:29;;;;;;;25.45;12.25;;;;;;;;;;5069444;28;20115;-60
2022/03/30 02:46:55;;;;;;;24.92;12.18;;;;;;;;;;5069896;28;20047;-60
2022/03/30 02:49:21;;;;;;;27.52;12.23;;;;;;;;;;5071408;28;20075;-60
2022/03/30 02:51:47;;;;;;;25.08;12.77;;;;;;;;;;5070359;28;20033;-60
2022/03/30 02:54:13;;;;;;;23.58;12.93;;;;;;;;;;5073598;28;20110;-60
2022/03/30 02:56:39;;;;;;;30.13;13.35;;;;;;;;;;5074643;28;20441;-60
2022/03/30 02:59:05;;;;;;;25.52;12.35;;;;;;;;;;5073848;28;20394;-60
2022/03/30 03:01:31;;;;;;;29.05;12.68;;;;;;;;;;5073417;28;20127;-60
2022/03/30 03:03:57;;;;;;;29.17;12.45;;;;;;;;;;5072748;28;20047;-60
2022/03/30 03:06:23;;;;;;;25.90;11.93;;;;;;;;;;5073384;28;20040;-60
2022/03/30 03:08:49;;;;;;;27.77;14.82;;;;;;;;;;5073974;28;20039;-60
2022/03/30 03:11:15;;;;;;;28.20;12.95;;;;;;;;;;5073602;28;20119;-60
2022/03/30 03:13:41;;;;;;;30.92;13.82;;;;;;;;;;5073954;28;20036;-60
2022/03/30 03:16:07;;;;;;;27.83;12.32;;;;;;;;;;5073490;28;20443;-60
2022/03/30 03:18:35;;;;;;;26.73;12.68;;;;;;;;;;5073990;28;20432;-60
2022/03/30 03:21:01;;;;;;;24.70;13.05;;;;;;;;;;5076420;28;20070;-60
2022/03/30 03:23:27;;;;;;;26.55;12.02;;;;;;;;;;5074292;28;20028;-60
2022/03/30 03:25:53;;;;;;;28.90;12.95;;;;;;;;;;5073035;28;20053;-60
2022/03/30 03:28:19;;;;;;;28.75;12.27;;;;;;;;;;5075165;28;20524;-60
2022/03/30 03:30:45;;;;;;;25.00;12.55;;;;;;;;;;5073904;28;20044;-60
2022/03/30 03:33:11;;;;;;;25.92;12.23;;;;;;;;;;5073957;28;20066;-60
2022/03/30 03:35:38;;;;;;;21.67;11.63;;;;;;;;;;5069691;28;20075;-60
2022/03/30 03:38:05;;;;;;;23.42;12.35;;;;;;;;;;5072391;28;20499;-60
2022/03/30 03:40:31;;;;;;;25.02;12.13;;;;;;;;;;5072798;28;20036;-60
2022/03/30 03:42:58;;;;;;;25.00;12.35;;;;;;;;;;5071627;28;20037;-60
2022/03/30 03:45:24;;;;;;;25.42;12.63;;;;;;;;;;5072943;28;20483;-60
2022/03/30 03:47:51;;;;;;;25.33;12.18;;;;;;;;;;5072800;28;20043;-60
2022/03/30 03:50:18;;;;;;;22.50;12.02;;;;;;;;;;5070539;28;20063;-60
2022/03/30 03:52:44;;;;;;;26.30;12.68;;;;;;;;;;5071482;28;20032;-60
2022/03/30 03:55:10;;;;;;;29.52;12.50;;;;;;;;;;5070653;28;20123;-60
2022/03/30 03:57:38;;;;;;;26.67;13.23;;;;;;;;;;5071011;28;20040;-60
2022/03/30 04:00:04;;;;;;;25.05;12.05;;;;;;;;;;5072659;28;20491;-59
2022/03/30 04:02:30;;;;;;;26.10;12.20;;;;;;;;;;5070908;28;20044;-61
2022/03/30 04:04:56;;;;;;;28.33;12.13;;;;;;;;;;5069705;28;20419;-60
2022/03/30 04:07:23;;;;;;;23.27;11.65;;;;;;;;;;5073889;28;20040;-60
2022/03/30 04:09:49;;;;;;;24.65;12.18;;;;;;;;;;5070411;28;20066;-60
2022/03/30 04:12:15;;;;;;;21.42;11.65;;;;;;;;;;5072726;28;20045;-60
2022/03/30 04:14:41;;;;;;;30.90;12.40;;;;;;;;;;5072902;28;20573;-60
2022/03/30 04:17:07;;;;;;;30.73;11.73;;;;;;;;;;5071651;28;20036;-60
2022/03/30 04:19:33;;;;;;;25.85;11.30;;;;;;;;;;5072076;28;20094;-60
2022/03/30 04:21:59;;;;;;;25.30;13.23;;;;;;;;;;5071935;28;20040;-60
2022/03/30 04:24:25;;;;;;;23.85;11.63;;;;;;;;;;5071515;28;20089;-61
2022/03/30 04:26:51;;;;;;;24.27;12.25;;;;;;;;;;5073654;28;20044;-60
2022/03/30 04:29:17;;;;;;;21.90;11.00;;;;;;;;;;5072478;28;20036;-60
2022/03/30 04:31:43;;;;;;;26.90;12.65;;;;;;;;;;5073765;28;20058;-60
2022/03/30 04:34:09;;;;;;;24.23;12.05;;;;;;;;;;5072538;28;20398;-60
2022/03/30 04:36:35;;;;;;;26.13;12.25;;;;;;;;;;5070982;28;20132;-60
2022/03/30 04:39:01;;;;;;;25.58;12.52;;;;;;;;;;5071457;28;20102;-60
2022/03/30 04:41:27;;;;;;;20.48;11.70;;;;;;;;;;5072323;28;20106;-60
2022/03/30 04:43:53;;;;;;;24.45;11.82;;;;;;;;;;5071128;28;20053;-60
2022/03/30 04:46:19;;;;;;;25.35;13.10;;;;;;;;;;5072442;28;20032;-60
2022/03/30 04:48:45;;;;;;;28.13;11.75;;;;;;;;;;5072909;28;20051;-60
2022/03/30 04:51:11;;;;;;;25.00;12.35;;;;;;;;;;5072064;28;20491;-60
2022/03/30 04:53:38;;;;;;;27.38;12.73;;;;;;;;;;5072740;28;20036;-60
2022/03/30 04:56:04;;;;;;;23.38;12.18;;;;;;;;;;5071287;28;20051;-60
2022/03/30 04:58:30;;;;;;;26.10;12.80;;;;;;;;;;5073392;28;20131;-60
2022/03/30 05:00:56;;;;;;;25.75;12.50;;;;;;;;;;5071808;28;20043;-60
2022/03/30 05:03:22;;;;;;;28.85;12.57;;;;;;;;;;5071774;28;20037;-60
2022/03/30 05:05:48;;;;;;;29.38;12.63;;;;;;;;;;5073822;28;20487;-60
2022/03/30 05:08:14;;;;;;;25.20;12.23;;;;;;;;;;5071267;28;20051;-61
2022/03/30 05:10:40;;;;;;;24.60;11.73;;;;;;;;;;5073169;28;20043;-61
2022/03/30 05:13:06;;;;;;;31.08;12.40;;;;;;;;;;5070893;28;20155;-60
2022/03/30 05:15:32;;;;;;;27.45;11.98;;;;;;;;;;5070923;28;20076;-60
2022/03/30 05:18:00;;;;;;;30.88;13.00;;;;;;;;;;5072093;28;20040;-60
2022/03/30 05:20:26;;;;;;;30.77;12.30;;;;;;;;;;5069959;28;20040;-61
2022/03/30 05:22:52;;;;;;;24.17;11.77;;;;;;;;;;5072594;28;20498;-60
2022/03/30 05:25:19;;;;;;;25.38;12.48;;;;;;;;;;5070088;28;20071;-60
2022/03/30 05:27:45;;;;;;;31.67;12.57;;;;;;;;;;5067260;28;20090;-60
2022/03/30 05:30:12;;;;;;;24.10;12.77;;;;;;;;;;5066766;28;20124;-61
2022/03/30 05:32:38;;;;;;;37.00;13.35;;;;;;;;;;5071215;28;20036;-60
2022/03/30 05:35:05;;;;;;;24.65;12.82;;;;;;;;;;5069716;28;20048;-60
2022/03/30 05:37:32;;;;;;;27.02;10.07;;;;;;;;;;5068762;28;20048;-61
2022/03/30 05:39:58;;;;;;;23.65;10.95;;;;;;;;;;5068645;28;20403;-60
2022/03/30 05:42:24;;;;;;;19.15;9.25;;;;;;;;;;5070474;28;20103;-60
2022/03/30 05:44:51;;;;;;;21.08;9.43;;;;;;;;;;5067314;28;20044;-60
2022/03/30 05:47:17;;;;;;;14.93;8.23;;;;;;;;;;5068512;28;20047;-60
2022/03/30 05:49:43;;;;;;;17.08;8.02;;;;;;;;;;5069581;28;20137;-61
2022/03/30 05:52:10;;;;;;;16.23;8.52;;;;;;;;;;5067237;28;20076;-61
2022/03/30 05:54:36;;;;;;;16.65;5.97;;;;;;;;;;5068654;28;20056;-61
2022/03/30 05:57:05;;;;;;;11.40;5.22;;;;;;;;;;5068725;28;20044;-61
2022/03/30 05:59:35;;;;;;;13.48;4.43;;;;;;;;;;5070862;28;20509;-61
2022/03/30 06:02:02;;;;;;;10.20;4.32;;;;;;;;;;5069120;28;20047;-61
2022/03/30 06:04:28;;;;;;;8.15;3.55;;;;;;;;;;5070891;28;20394;-61
2022/03/30 06:06:55;;;;;;;6.63;2.85;;;;;;;;;;5070187;28;20131;-60
2022/03/30 06:09:22;;;;;;;5.40;3.03;;;;;;;;;;5070612;28;20036;-61
2022/03/30 06:11:48;;;;;;;6.43;3.30;;;;;;;;;;5069859;28;20406;-61
2022/03/30 06:14:14;;;;;;;5.03;2.95;;;;;;;;;;5071140;28;20062;-61
2022/03/30 06:16:41;;;;;;;4.80;2.70;;;;;;;;;;5070506;28;20036;-61
2022/03/30 06:19:09;;;;;;;5.18;2.45;;;5.90;99.90;;;;;;5070671;28;20055;-61
2022/03/30 06:21:35;;;;;;;3.85;2.20;;;;;;;;;;5070541;28;20029;-60
2022/03/30 06:24:01;;;;;;;2.70;1.63;;;;;;;;;;5070797;28;20068;-61
2022/03/30 06:26:28;;;;;;;2.72;1.50;;;;;;;;;;5069136;28;20045;-61
2022/03/30 06:28:54;;;;;;;2.30;1.40;;;;;;;;;;5066479;28;20396;-61
2022/03/30 06:31:20;;;;;;;1.88;1.08;;;;;;;;;;5070836;28;20067;-61
2022/03/30 06:33:47;;;;;;;2.22;0.93;;;;;;;;;;5070527;28;20044;-61
2022/03/30 06:36:13;;;;;;;1.15;0.80;;;;;;;;;;5070143;28;20056;-60
2022/03/30 06:38:44;;;;;;;1.50;0.82;;;;;;;;;;5069911;28;20060;-61
2022/03/30 06:41:12;;;;;;;0.90;0.55;;;;;;;;;;5070327;28;20415;-60
2022/03/30 06:43:42;;;;;;;1.67;0.60;;;;;;;;;;5070246;28;20055;-61
2022/03/30 06:46:09;;;;;;;1.65;0.75;;;;;;;;;;5070396;28;20040;-61
2022/03/30 06:48:35;;;;;;;0.77;0.60;;;;;;;;;;5070205;28;20534;-60
2022/03/30 06:51:01;;;;;;;0.60;0.60;;;;;;;;;;5070235;28;20390;-60
2022/03/30 06:53:27;;;;;;;0.75;0.60;;;;;;;;;;5070656;28;20048;-60
2022/03/30 06:55:53;;;;;;;1.95;1.02;;;;;;;;;;5070372;28;20589;-60
2022/03/30 06:58:19;;;;;;;1.50;0.80;;;;;;;;;;5070589;28;20071;-60
2022/03/30 07:00:45;;;;;;;1.10;1.00;;;;;;;;;;5070324;28;20040;-60
2022/03/30 07:03:11;;;;;;;2.65;1.17;;;;;;;;;;5070245;28;20121;-60
2022/03/30 07:05:38;;;;;;;2.10;1.30;;;;;;;;;;5070020;28;20044;-61
2022/03/30 07:10:49;;;;;;;3.10;1.35;;;;;;;;;;5070041;28;20123;-61
2022/03/30 07:13:15;;;;;;;1.65;1.45;;;;;;;;;;5070346;28;20464;-60
2022/03/30 07:15:41;;;;;;;2.17;1.38;;;;;;;;;;5070295;28;20036;-60
2022/03/30 07:18:08;;;;;;;2.22;1.45;;;;;;;;;;5065652;28;20041;-60
2022/03/30 07:20:35;;;;;;;2.03;1.60;;;;;;;;;;5069432;28;20045;-60
2022/03/30 07:23:01;;;;;;;3.72;1.40;;;;;;;;;;5069347;28;20043;-60
2022/03/30 07:25:27;;;;;;;2.30;1.90;;;;;;;;;;5070295;28;20398;-62
2022/03/30 07:27:54;;;;;;;2.35;1.85;;;;;;;;;;5069559;28;20450;-62
2022/03/30 07:30:22;;;;;;;4.15;2.03;;;7.70;99.90;;;;;;5069719;28;20044;-62
2022/03/30 07:32:49;;;;;;;2.63;2.05;;;;;;;;;;5069698;28;20048;-62
2022/03/30 07:35:17;;;;;;;2.63;1.98;;;7.90;99.90;;;;;;5069677;28;20076;-62
2022/03/30 07:37:44;;;;;;;6.00;2.10;;;;;;;;;;5069488;28;20071;-61
2022/03/30 07:40:12;;;;;;;3.75;1.80;;;8.00;99.90;;;;;;5072081;28;20044;-62
2022/03/30 07:42:38;;;;;;;4.22;2.00;;;;;;;;;;5073034;28;20090;-62
2022/03/30 07:45:05;;;;;;;2.70;2.13;;;;;;;;;;5071477;28;20036;-62
2022/03/30 07:47:31;;;;;;;2.63;2.00;;;;;;;;;;5072766;28;20052;-62
2022/03/30 07:49:57;;;;;;;2.10;1.90;;;;;;;;;;5073183;28;20037;-62
2022/03/30 07:52:23;;;;;;;2.30;1.80;;;;;;;;;;5073128;28;20074;-62
2022/03/30 07:54:50;;;;;;;3.92;1.67;;;;;;;;;;5073472;28;20090;-62
2022/03/30 07:57:16;;;;;;;2.38;1.73;;;;;;;;;;5073345;28;20040;-62
2022/03/30 07:59:42;;;;;;;2.53;1.50;;;;;;;;;;5073281;28;20115;-62
2022/03/30 08:02:10;;;;;;;2.70;1.55;;;8.40;99.90;;;;;;5071774;28;20032;-62
2022/03/30 08:04:36;;;;;;;3.20;1.88;;;;;;;;;;5073370;28;20445;-62
2022/03/30 08:07:02;;;;;;;2.05;1.33;;;;;;;;;;5073142;28;20037;-62
2022/03/30 08:09:28;;;;;;;2.33;1.60;;;;;;;;;;5073026;28;20047;-62
2022/03/30 08:11:54;;;;;;;3.75;1.38;;;;;;;;;;5073201;28;20456;-62
2022/03/30 08:14:20;;;;;;;3.30;1.30;;;;;;;;;;5072934;28;20040;-62
2022/03/30 08:16:46;;;;;;;2.95;1.20;;;;;;;;;;5072675;28;20048;-62
2022/03/30 08:19:12;;;;;;;1.88;1.30;;;;;;;;;;5072673;28;20046;-62
2022/03/30 08:24:23;;;;;;;3.38;1.45;;;;;;;;;;5072774;28;20174;-62
2022/03/30 08:26:49;;;;;;;2.50;1.35;;;;;;;;;;5071476;28;20048;-62
2022/03/30 08:29:16;;;;;;;3.83;1.05;;;;;;;;;;5072773;28;20089;-62
2022/03/30 08:31:42;;;;;;;3.15;1.48;;;;;;;;;;5072981;28;20052;-62
2022/03/30 08:34:08;;;;;;;1.73;1.05;;;;;;;;;;5072534;28;20036;-62
2022/03/30 08:36:34;;;;;;;2.15;0.90;;;;;;;;;;5072435;28;20090;-62
2022/03/30 08:39:10;;;;;;;4.70;1.33;;;;;;;;;;5072486;28;20050;-62
2022/03/30 08:41:37;;;;;;;3.25;1.00;;;;;;;;;;5068655;28;20094;-62
2022/03/30 08:44:03;;;;;;;1.40;0.98;;;;;;;;;;5072039;28;20032;-62
2022/03/30 08:46:29;;;;;;;3.33;1.30;;;;;;;;;;5072132;28;20098;-62
2022/03/30 08:48:55;;;;;;;3.08;1.42;;;;;;;;;;5072347;28;20094;-62
2022/03/30 08:51:21;;;;;;;5.18;1.05;;;;;;;;;;5072139;28;20052;-62
2022/03/30 08:53:49;;;;;;;2.97;1.30;;;8.40;99.90;;;;;;5064829;28;20033;-62
2022/03/30 08:56:15;;;;;;;2.65;1.30;;;;;;;;;;5071713;28;20049;-62
2022/03/30 08:58:41;;;;;;;4.40;1.58;;;;;;;;;;5072058;28;20029;-62
2022/03/30 09:01:14;;;;;;;1.33;1.10;;;8.70;99.90;;;;;;5071928;28;20039;-62
2022/03/30 09:04:00;;;;;;;5.40;1.70;;;;;;;;;;5071715;28;20040;-62
2022/03/30 09:06:30;;;;;;;7.65;1.48;;;8.60;99.90;;;;;;5071481;28;20418;-62
2022/03/30 09:08:59;;;;;;;3.30;1.90;;;;;;;;;;5071591;28;20040;-62
2022/03/30 09:11:30;;;;;;;3.25;1.95;;;;;;;;;;5066430;28;20040;-62
2022/03/30 09:14:04;;;;;;;3.47;1.53;;;8.30;99.90;;;;;;5071641;28;20036;-62
2022/03/30 09:16:42;;;;;;;7.53;1.70;;;8.60;99.90;;;;;;5070880;28;20075;-62
2022/03/30 09:19:11;;;;;;;2.90;0.98;;;;;;;;;;5069207;28;20179;-62
2022/03/30 09:21:51;;;;;;;3.75;1.35;;;;;;;;;;5066441;28;20372;-62
2022/03/30 09:24:20;;;;;;;3.00;1.17;;;8.90;99.90;;;;;;5069919;28;20439;-62
2022/03/30 09:26:47;;;;;;;3.30;1.17;;;;;;;;;;5068978;28;20036;-62
2022/03/30 09:29:13;;;;;;;5.53;1.88;;;;;;;;;;5071716;28;20047;-62
2022/03/30 09:31:43;;;;;;;2.72;1.20;;;;;;;;;;5069272;28;20120;-62
2022/03/30 09:34:10;;;;;;;3.25;0.93;;;;;;;;;;5071667;28;20043;-62
2022/03/30 09:36:37;;;;;;;2.85;0.88;;;;;;;;;;5068940;28;20079;-62
2022/03/30 09:39:04;;;;;;;4.05;1.23;;;;;;;;;;5070886;28;20059;-62
2022/03/30 09:41:50;;;;;;;2.85;1.38;;;9.70;99.90;;;;;;5067981;28;20041;-62
2022/03/30 09:44:17;;;;;;;3.50;1.23;;;10.20;99.90;;;;;;5068273;28;20097;-62
2022/03/30 09:46:55;;;;;;;4.25;1.48;;;;;;;;;;5070956;28;20461;-62
2022/03/30 09:49:53;;;;;;;3.95;1.40;;;;;;;;;;5066908;28;20043;-62
2022/03/30 09:52:19;;;;;;;3.75;1.17;;;;;;;;;;5046117;28;20059;-62
2022/03/30 09:54:47;;;;;;;5.38;1.50;;;;;;;;;;5032220;28;20844;-62
2022/03/30 09:57:21;;;;;;;4.03;1.40;;;10.70;99.90;;;;;;5047976;28;20128;-62
2022/03/30 10:00:05;;;;;;;3.60;1.70;;;10.50;99.90;;;;;;5047314;28;20056;-62
2022/03/30 10:02:35;;;;;;;2.95;1.17;;;;;;;;;;5045680;28;20399;-62
2022/03/30 10:05:01;;;;;;;3.33;1.35;;;10.10;99.90;;;;;;5046041;28;20043;-62
2022/03/30 10:07:28;;;;;;;6.72;1.75;;;10.30;99.90;;;;;;5048598;28;20446;-62
2022/03/30 10:09:56;;;;;;;4.50;1.30;;;;;;;;;;5048256;28;20053;-62
2022/03/30 10:12:23;;;;;;;6.45;1.60;;;;;;;;;;5044148;28;21033;-62
2022/03/30 10:14:49;;;;;;;2.80;1.10;;;;;;;;;;5047734;28;20048;-62
2022/03/30 10:17:16;;;;;;;2.58;1.38;;;;;;;;;;5048055;28;20037;-62
2022/03/30 10:19:44;;;;;;;3.22;1.15;;;9.90;99.90;;;;;;5047796;28;20036;-62
2022/03/30 10:22:38;;;;;;;2.95;1.20;;;10.10;99.90;;;;;;5047718;28;20170;-62
2022/03/30 10:26:00;;;;;;;2.90;1.38;;;9.80;99.90;;;;;;5047540;28;20120;-62
2022/03/30 10:28:44;;;;;;;3.53;1.60;;;;;;;;;;5016951;28;20049;-63
2022/03/30 10:31:10;;;;;;;3.67;1.80;;;9.90;99.90;;;;;;5027946;28;20033;-63
2022/03/30 10:33:44;;;;;;;3.60;2.33;;;;;;;;;;5027983;28;20148;-62
2022/03/30 10:36:29;;;;;;;3.72;2.75;;;10.10;99.90;;;;;;5025543;28;20427;-62
2022/03/30 10:39:14;;;;;;;4.60;3.35;;;10.20;99.90;;;;;;5027719;28;20478;-62
2022/03/30 10:41:49;;;;;;;8.00;3.17;;;;;;;;;;5005096;28;20046;-62
2022/03/30 10:44:35;;;;;;;5.05;2.50;;;10.70;99.90;;;;;;5027701;28;20549;-62
2022/03/30 10:47:13;;;;;;;5.25;2.60;;;;;;;;;;5027397;28;20080;-62
2022/03/30 10:49:56;;;;;;;4.07;2.20;;;11.10;99.90;;;;;;5027658;28;20069;-62
2022/03/30 10:52:25;;;;;;;3.38;2.00;;;;;;;;;;5027528;28;20400;-62
2022/03/30 10:54:55;;;;;;;4.03;2.08;;;;;;;;;;5027464;28;20399;-62
2022/03/30 10:57:43;;;;;;;2.22;1.50;;;;;;;;;;5026137;28;20053;-62
2022/03/30 11:00:16;;;;;;;3.97;1.30;;;;;;;;;;5067420;28;20071;-62
2022/03/30 11:02:43;;;;;;;3.75;1.40;;;;;;;;;;5069819;28;20040;-62
2022/03/30 11:05:13;;;;;;;4.10;1.48;;;;;;;;;;5070341;28;20478;-62
2022/03/30 11:07:40;;;;;;;1.83;1.20;;;;;;;;;;5069269;28;20105;-62
2022/03/30 11:10:22;;;;;;;3.10;1.27;;;;;;;;;;5068341;28;20123;-62
2022/03/30 11:13:11;;;;;;;2.78;1.00;;;;;;;;;;5070054;28;20051;-62
2022/03/30 11:15:55;;;;;;;2.53;1.02;;;;;;;;;;5073553;28;20522;-62
2022/03/30 11:18:21;;;;;;;6.10;1.20;;;;;;;;;;5073824;28;20479;-62
2022/03/30 11:21:09;;;;;;;2.65;1.20;;;11.60;99.90;;;;;;5073838;28;20044;-62
2022/03/30 11:23:55;;;;;;;1.95;0.90;;;;;;;;;;5072496;28;20055;-62
2022/03/30 11:26:22;;;;;;;1.88;0.90;;;11.30;99.90;;;;;;5072191;28;20036;-62
2022/03/30 11:28:48;;;;;;;3.22;1.10;;;;;;;;;;5071573;28;20060;-62
2022/03/30 11:31:22;;;;;;;5.82;1.55;;;11.10;99.90;;;;;;5073684;28;20032;-62
2022/03/30 11:34:26;;;;;;;2.13;1.00;;;10.80;99.90;;;;;;5073349;28;20456;-62
2022/03/30 11:36:53;;;;;;;5.55;1.73;;;10.50;99.90;;;;;;5069460;28;20052;-62
2022/03/30 11:39:32;;;;;;;1.40;1.10;;;10.50;99.90;;;;;;5073572;28;20094;-62
2022/03/30 11:41:59;;;;;;;4.63;1.10;;;;;;;;;;5072767;28;20075;-62
2022/03/30 11:47:17;;;;;;;1.65;1.10;;;;;;;;;;5072326;28;20161;-62
2022/03/30 11:49:52;;;;;;;;;;;10.60;99.90;;;;;;5073038;28;20119;-62
2022/03/30 11:52:19;;;;;;;2.63;1.00;;;;;;;;;;5069301;28;19939;-62
2022/03/30 11:54:49;;;;;;;1.92;0.93;;;;;;;;;;5073086;28;20032;-62
2022/03/30 11:57:15;;;;;;;4.95;1.00;;;;;;;;;;5073034;28;20033;-62
2022/03/30 11:59:42;;;;;;;3.47;1.00;;;10.10;99.90;;;;;;5073396;28;20032;-62
2022/03/30 12:02:08;;;;;;;3.22;1.10;;;;;;;;;;5073228;28;20422;-62
2022/03/30 12:04:34;;;;;;;4.70;0.95;;;;;;;;;;5073090;28;20501;-62
2022/03/30 12:07:01;;;;;;;4.15;1.00;;;;;;;;;;5073101;28;20040;-62
2022/03/30 12:09:27;;;;;;;3.60;0.90;;;;;;;;;;5072340;28;20040;-62
2022/03/30 12:11:54;;;;;;;4.28;1.10;;;;;;;;;;5100145;28;20053;-62
2022/03/30 12:14:27;;;;;;;4.03;1.13;;;;;;;;;;5072435;28;20040;-62
2022/03/30 12:16:57;;;;;;;2.90;1.00;;;10.50;99.90;;;;;;5072700;28;20044;-62
2022/03/30 12:19:23;;;;;;;3.38;1.02;;;;;;;;;;5072445;28;20040;-62
2022/03/30 12:21:49;;;;;;;4.00;1.17;;;;;;;;;;5072640;28;20037;-62
2022/03/30 12:24:22;;;;;;;3.45;1.10;;;;;;;;;;5072360;28;20076;-62
2022/03/30 12:26:51;;;;;;;;;;;11.40;99.90;;;;;;5072730;28;20058;-62
2022/03/30 12:29:17;;;;;;;6.35;1.17;;;;;;;;;;5072484;28;20382;-62
2022/03/30 12:31:45;;;;;;;3.63;0.90;;;;;;;;;;5072480;28;20047;-62
2022/03/30 12:34:12;;;;;;;2.25;0.80;;;;;;;;;;5072497;28;20161;-62
2022/03/30 12:36:43;;;;;;;2.75;1.00;;;;;;;;;;5072028;28;20053;-62
2022/03/30 12:39:16;;;;;;;1.55;0.82;;;;;;;;;;5072107;28;20075;-62
2022/03/30 12:41:42;;;;;;;3.30;0.85;;;;;;;;;;5072454;28;20033;-62
2022/03/30 12:44:09;;;;;;;2.28;0.80;;;;;;;;;;5072382;28;20044;-62
2022/03/30 12:46:36;;;;;;;4.55;1.10;;;;;;;;;;5071285;28;20048;-62
2022/03/30 12:49:09;;;;;;;4.20;1.15;;;;;;;;;;5072622;28;20087;-62
2022/03/30 12:51:36;;;;;;;2.20;0.70;;;;;;;;;;5070469;28;20131;-62
2022/03/30 12:54:03;;;;;;;3.10;0.80;;;;;;;;;;5073083;28;20044;-62
2022/03/30 12:56:29;;;;;;;2.63;0.93;;;;;;;;;;5071736;28;20101;-62
2022/03/30 12:59:04;;;;;;;0.95;0.52;;;12.40;99.90;;;;;;5071554;28;20040;-62
2022/03/30 13:01:43;;;;;;;2.22;0.98;;;12.50;99.90;;;;;;5072137;28;20037;-62
2022/03/30 13:04:23;;;;;;;1.27;0.70;;;12.20;99.90;;;;;;5070548;28;20045;-62
2022/03/30 13:07:09;;;;;;;2.35;0.70;;;12.40;99.90;;;;;;5071764;28;20039;-62
2022/03/30 13:09:36;;;;;;;3.63;0.98;;;12.40;99.90;;;;;;5071070;28;20078;-63
2022/03/30 13:12:02;;;;;;;1.77;1.15;;;;;;;;;;5071416;28;20036;-62
2022/03/30 13:14:28;;;;;;;4.35;1.10;;;;;;;;;;5071294;28;20052;-62
2022/03/30 13:17:01;;;;;;;2.63;1.00;;;12.10;99.90;;;;;;5070217;28;20052;-62
2022/03/30 13:19:27;;;;;;;7.13;1.10;;;;;;;;;;5072858;28;20474;-62
2022/03/30 13:21:57;;;;;;;1.98;1.10;;;11.60;99.90;;;;;;5069888;28;20063;-62
2022/03/30 13:24:26;;;;;;;3.95;1.10;;;11.60;99.90;;;;;;5069401;28;20037;-62
2022/03/30 13:26:56;;;;;;;2.00;0.90;;;11.50;99.90;;;;;;5071175;28;20072;-62
2022/03/30 13:29:22;;;;;;;3.10;1.00;;;;;;;;;;5067859;28;20116;-62
2022/03/30 13:31:48;;;;;;;5.63;1.40;;;;;;;;;;5070428;28;20051;-62
2022/03/30 13:34:15;;;;;;;2.45;0.90;;;;;;;;;;5072095;28;20390;-62
2022/03/30 13:36:42;;;;;;;4.70;0.93;;;;;;;;;;5065851;28;20520;-62
2022/03/30 13:39:09;;;;;;;2.42;1.00;;;10.60;99.90;;;;;;5069830;28;20068;-62
2022/03/30 13:41:35;;;;;;;2.47;1.15;;;;;;;;;;5069526;28;20089;-62
2022/03/30 13:44:02;;;;;;;3.80;1.25;;;;;;;;;;5070793;28;20055;-62
2022/03/30 13:46:28;;;;;;;4.72;1.13;;;;;;;;;;5070962;28;20109;-62
2022/03/30 13:48:55;;;;;;;3.75;1.05;;;;;;;;;;5070850;28;20487;-61
2022/03/30 13:51:21;;;;;;;5.90;0.85;;;;;;;;;;5068906;28;20098;-60
2022/03/30 13:53:47;;;;;;;2.78;0.98;;;;;;;;;;5073652;28;20048;-61
2022/03/30 13:56:15;;;;;;;2.17;1.00;;;;;;;;;;5070080;28;20127;-61
2022/03/30 13:58:41;;;;;;;3.90;1.00;;;;;;;;;;5068275;28;20040;-61
2022/03/30 14:01:08;;;;;;;6.55;1.00;;;;;;;;;;5068242;28;20036;-61
2022/03/30 14:03:34;;;;;;;4.70;1.08;;;;;;;;;;5070618;28;20403;-62
2022/03/30 14:06:00;;;;;;;4.80;1.30;;;;;;;;;;5068764;28;20044;-62
2022/03/30 14:08:27;;;;;;;3.40;0.90;;;;;;;;;;5071234;28;20044;-62
2022/03/30 14:10:54;;;;;;;2.38;0.93;;;11.30;99.90;;;;;;5066658;28;20037;-62
2022/03/30 14:13:20;;;;;;;1.75;0.90;;;;;;;;;;5071419;28;20044;-62
2022/03/30 14:15:46;;;;;;;2.42;1.30;;;;;;;;;;5071388;28;20101;-61
2022/03/30 14:18:13;;;;;;;3.10;0.80;;;;;;;;;;5070290;28;20048;-62
2022/03/30 14:20:40;;;;;;;1.98;0.77;;;;;;;;;;5072605;28;20115;-62
2022/03/30 14:23:07;;;;;;;3.97;1.45;;;;;;;;;;5071470;28;20040;-62
2022/03/30 14:25:33;;;;;;;4.80;0.90;;;;;;;;;;5069903;28;20028;-62
2022/03/30 14:28:03;;;;;;;2.58;1.10;;;;;;;;;;5070223;28;20036;-62
2022/03/30 14:30:32;;;;;;;4.10;0.80;;;;;;;;;;5069809;28;20127;-62
2022/03/30 14:32:59;;;;;;;1.98;0.88;;;;;;;;;;5070279;28;20047;-62